sensor_id;sensor_type;location;lat;lon;timestamp;temperature;humidity
60860;DHT22;46694;54.382;9.708;2023-10-09T00:01:06;11.20;99.90
60860;DHT22;46694;54.382;9.708;2023-10-09T00:03:42;11.20;99.90
60860;DHT22;46694;54.382;9.708;2023-10-09T00:06:10;11.30;99.90
60860;DHT22;46694;54.382;9.708;2023-10-09T00:08:39;11.30;99.90
60860;DHT22;46694;54.382;9.708;2023-10-09T00:11:10;11.30;99.90
60860;DHT22;46694;54.382;9.708;2023-10-09T00:13:44;11.30;99.90
60860;DHT22;46694;54.382;9.708;2023-10-09T00:16:24;11.30;99.90
60860;DHT22;46694;54.382;9.708;2023-10-09T00:19:12;11.30;99.90
60860;DHT22;46694;54.382;9.708;2023-10-09T00:21:56;11.30;99.90
60860;DHT22;46694;54.382;9.708;2023-10-09T00:24:24;11.30;99.90
60860;DHT22;46694;54.382;9.708;2023-10-09T00:26:54;11.20;99.90
60860;DHT22;46694;54.382;9.708;2023-10-09T00:29:40;11.20;99.90
60860;DHT22;46694;54.382;9.708;2023-10-09T00:32:14;11.20;99.90
60860;DHT22;46694;54.382;9.708;2023-10-09T00:34:52;11.20;99.90
60860;DHT22;46694;54.382;9.708;2023-10-09T00:37:24;11.20;99.90
60860;DHT22;46694;54.382;9.708;2023-10-09T00:39:52;11.10;99.90
60860;DHT22;46694;54.382;9.708;2023-10-09T00:42:25;11.10;99.90
60860;DHT22;46694;54.382;9.708;2023-10-09T00:45:01;11.10;99.90
60860;DHT22;46694;54.382;9.708;2023-10-09T00:47:31;11.00;99.90
60860;DHT22;46694;54.382;9.708;2023-10-09T00:50:05;10.90;99.90
60860;DHT22;46694;54.382;9.708;2023-10-09T00:52:44;10.90;99.90
60860;DHT22;46694;54.382;9.708;2023-10-09T00:55:27;10.80;99.90
60860;DHT22;46694;54.382;9.708;2023-10-09T00:58:05;10.70;99.90
60860;DHT22;46694;54.382;9.708;2023-10-09T01:00:37;10.70;99.90
60860;DHT22;46694;54.382;9.708;2023-10-09T01:03:11;10.80;99.90
60860;DHT22;46694;54.382;9.708;2023-10-09T01:08:27;10.80;99.90
60860;DHT22;46694;54.382;9.708;2023-10-09T01:11:13;10.80;99.90
60860;DHT22;46694;54.382;9.708;2023-10-09T01:13:55;10.80;99.90
60860;DHT22;46694;54.382;9.708;2023-10-09T01:16:34;10.70;99.90
60860;DHT22;46694;54.382;9.708;2023-10-09T01:19:00;10.70;99.90
60860;DHT22;46694;54.382;9.708;2023-10-09T01:21:31;10.70;99.90
60860;DHT22;46694;54.382;9.708;2023-10-09T01:23:57;10.70;99.90
60860;DHT22;46694;54.382;9.708;2023-10-09T01:26:36;10.60;99.90
60860;DHT22;46694;54.382;9.708;2023-10-09T01:29:11;10.60;99.90
60860;DHT22;46694;54.382;9.708;2023-10-09T01:31:52;10.50;99.90
60860;DHT22;46694;54.382;9.708;2023-10-09T01:34:25;10.50;99.90
60860;DHT22;46694;54.382;9.708;2023-10-09T01:37:11;10.40;99.90
60860;DHT22;46694;54.382;9.708;2023-10-09T01:39:53;10.40;99.90
60860;DHT22;46694;54.382;9.708;2023-10-09T01:42:25;10.30;99.90
60860;DHT22;46694;54.382;9.708;2023-10-09T01:45:11;10.30;99.90
60860;DHT22;46694;54.382;9.708;2023-10-09T01:47:57;10.30;99.90
60860;DHT22;46694;54.382;9.708;2023-10-09T01:50:24;10.30;99.90
60860;DHT22;46694;54.382;9.708;2023-10-09T01:52:56;10.30;99.90
60860;DHT22;46694;54.382;9.708;2023-10-09T01:55:25;10.30;99.90
60860;DHT22;46694;54.382;9.708;2023-10-09T01:58:00;10.20;99.90
60860;DHT22;46694;54.382;9.708;2023-10-09T02:00:53;10.20;99.90
60860;DHT22;46694;54.382;9.708;2023-10-09T02:03:23;10.20;99.90
60860;DHT22;46694;54.382;9.708;2023-10-09T02:05:50;10.10;99.90
60860;DHT22;46694;54.382;9.708;2023-10-09T02:08:17;10.20;99.90
60860;DHT22;46694;54.382;9.708;2023-10-09T02:10:48;10.20;99.90
60860;DHT22;46694;54.382;9.708;2023-10-09T02:13:14;10.20;99.90
60860;DHT22;46694;54.382;9.708;2023-10-09T02:15:43;10.20;99.90
60860;DHT22;46694;54.382;9.708;2023-10-09T02:18:16;10.10;99.90
60860;DHT22;46694;54.382;9.708;2023-10-09T02:20:46;10.10;99.90
60860;DHT22;46694;54.382;9.708;2023-10-09T02:23:20;10.10;99.90
60860;DHT22;46694;54.382;9.708;2023-10-09T02:25:49;10.00;99.90
60860;DHT22;46694;54.382;9.708;2023-10-09T02:28:18;10.00;99.90
60860;DHT22;46694;54.382;9.708;2023-10-09T02:30:45;10.00;99.90
60860;DHT22;46694;54.382;9.708;2023-10-09T02:33:16;10.00;99.90
60860;DHT22;46694;54.382;9.708;2023-10-09T02:35:59;10.10;99.90
60860;DHT22;46694;54.382;9.708;2023-10-09T02:38:31;10.00;99.90
60860;DHT22;46694;54.382;9.708;2023-10-09T02:41:02;10.00;99.90
60860;DHT22;46694;54.382;9.708;2023-10-09T02:43:35;10.10;99.90
60860;DHT22;46694;54.382;9.708;2023-10-09T02:46:13;10.00;99.90
60860;DHT22;46694;54.382;9.708;2023-10-09T02:48:56;10.00;99.90
60860;DHT22;46694;54.382;9.708;2023-10-09T02:51:30;9.90;99.90
60860;DHT22;46694;54.382;9.708;2023-10-09T02:54:06;9.80;99.90
60860;DHT22;46694;54.382;9.708;2023-10-09T02:56:53;9.80;99.90
60860;DHT22;46694;54.382;9.708;2023-10-09T02:59:31;9.80;99.90
60860;DHT22;46694;54.382;9.708;2023-10-09T03:01:57;9.70;99.90
60860;DHT22;46694;54.382;9.708;2023-10-09T03:04:28;9.80;99.90
60860;DHT22;46694;54.382;9.708;2023-10-09T03:06:55;9.90;99.90
60860;DHT22;46694;54.382;9.708;2023-10-09T03:09:23;9.90;99.90
60860;DHT22;46694;54.382;9.708;2023-10-09T03:12:02;10.00;99.90
60860;DHT22;46694;54.382;9.708;2023-10-09T03:14:30;10.10;99.90
60860;DHT22;46694;54.382;9.708;2023-10-09T03:16:57;10.00;99.90
60860;DHT22;46694;54.382;9.708;2023-10-09T03:19:26;10.00;99.90
60860;DHT22;46694;54.382;9.708;2023-10-09T03:21:54;10.00;99.90
60860;DHT22;46694;54.382;9.708;2023-10-09T03:24:25;10.10;99.90
60860;DHT22;46694;54.382;9.708;2023-10-09T03:26:53;10.00;99.90
60860;DHT22;46694;54.382;9.708;2023-10-09T03:29:22;10.00;99.90
60860;DHT22;46694;54.382;9.708;2023-10-09T03:31:48;10.10;99.90
60860;DHT22;46694;54.382;9.708;2023-10-09T03:34:16;10.20;99.90
60860;DHT22;46694;54.382;9.708;2023-10-09T03:36:45;10.10;99.90
60860;DHT22;46694;54.382;9.708;2023-10-09T03:39:13;10.20;99.90
60860;DHT22;46694;54.382;9.708;2023-10-09T03:41:58;10.10;99.90
60860;DHT22;46694;54.382;9.708;2023-10-09T03:44:25;10.10;99.90
60860;DHT22;46694;54.382;9.708;2023-10-09T03:46:54;10.20;99.90
60860;DHT22;46694;54.382;9.708;2023-10-09T03:49:20;10.20;99.90
60860;DHT22;46694;54.382;9.708;2023-10-09T03:51:51;10.20;99.90
60860;DHT22;46694;54.382;9.708;2023-10-09T03:54:18;10.10;99.90
60860;DHT22;46694;54.382;9.708;2023-10-09T03:56:50;10.20;99.90
60860;DHT22;46694;54.382;9.708;2023-10-09T03:59:20;10.20;99.90
60860;DHT22;46694;54.382;9.708;2023-10-09T04:01:47;10.20;99.90
60860;DHT22;46694;54.382;9.708;2023-10-09T04:04:14;10.30;99.90
60860;DHT22;46694;54.382;9.708;2023-10-09T04:06:40;10.20;99.90
60860;DHT22;46694;54.382;9.708;2023-10-09T04:09:08;10.20;99.90
60860;DHT22;46694;54.382;9.708;2023-10-09T04:11:40;10.20;99.90
60860;DHT22;46694;54.382;9.708;2023-10-09T04:14:12;10.30;99.90
60860;DHT22;46694;54.382;9.708;2023-10-09T04:16:57;10.20;99.90
60860;DHT22;46694;54.382;9.708;2023-10-09T04:19:49;10.30;99.90
60860;DHT22;46694;54.382;9.708;2023-10-09T04:22:40;10.30;99.90
60860;DHT22;46694;54.382;9.708;2023-10-09T04:25:19;10.30;99.90
60860;DHT22;46694;54.382;9.708;2023-10-09T04:27:57;10.20;99.90
60860;DHT22;46694;54.382;9.708;2023-10-09T04:30:37;10.20;99.90
60860;DHT22;46694;54.382;9.708;2023-10-09T04:33:12;10.30;99.90
60860;DHT22;46694;54.382;9.708;2023-10-09T04:36:08;10.30;99.90
60860;DHT22;46694;54.382;9.708;2023-10-09T04:38:53;10.30;99.90
60860;DHT22;46694;54.382;9.708;2023-10-09T04:41:41;10.30;99.90
60860;DHT22;46694;54.382;9.708;2023-10-09T04:44:08;10.30;99.90
60860;DHT22;46694;54.382;9.708;2023-10-09T04:46:44;10.30;99.90
60860;DHT22;46694;54.382;9.708;2023-10-09T04:49:24;10.30;99.90
60860;DHT22;46694;54.382;9.708;2023-10-09T04:51:56;10.30;99.90
60860;DHT22;46694;54.382;9.708;2023-10-09T04:54:32;10.30;99.90
60860;DHT22;46694;54.382;9.708;2023-10-09T04:57:27;10.30;99.90
60860;DHT22;46694;54.382;9.708;2023-10-09T05:00:15;10.30;99.90
60860;DHT22;46694;54.382;9.708;2023-10-09T05:02:49;10.30;99.90
60860;DHT22;46694;54.382;9.708;2023-10-09T05:05:30;10.30;99.90
60860;DHT22;46694;54.382;9.708;2023-10-09T05:08:12;10.30;99.90
60860;DHT22;46694;54.382;9.708;2023-10-09T05:11:00;10.30;99.90
60860;DHT22;46694;54.382;9.708;2023-10-09T05:13:29;10.30;99.90
60860;DHT22;46694;54.382;9.708;2023-10-09T05:16:05;10.40;99.90
60860;DHT22;46694;54.382;9.708;2023-10-09T05:18:45;10.40;99.90
60860;DHT22;46694;54.382;9.708;2023-10-09T05:23:57;10.30;99.90
60860;DHT22;46694;54.382;9.708;2023-10-09T05:26:42;10.40;99.90
60860;DHT22;46694;54.382;9.708;2023-10-09T05:29:20;10.40;99.90
60860;DHT22;46694;54.382;9.708;2023-10-09T05:32:01;10.40;99.90
60860;DHT22;46694;54.382;9.708;2023-10-09T05:34:31;10.50;99.90
60860;DHT22;46694;54.382;9.708;2023-10-09T05:37:06;10.50;99.90
60860;DHT22;46694;54.382;9.708;2023-10-09T05:39:54;10.50;99.90
60860;DHT22;46694;54.382;9.708;2023-10-09T05:42:31;10.60;99.90
60860;DHT22;46694;54.382;9.708;2023-10-09T05:45:04;10.50;99.90
60860;DHT22;46694;54.382;9.708;2023-10-09T05:47:49;10.60;99.90
60860;DHT22;46694;54.382;9.708;2023-10-09T05:50:34;10.50;99.90
60860;DHT22;46694;54.382;9.708;2023-10-09T05:53:01;10.50;99.90
60860;DHT22;46694;54.382;9.708;2023-10-09T05:55:29;10.50;99.90
60860;DHT22;46694;54.382;9.708;2023-10-09T05:58:13;10.50;99.90
60860;DHT22;46694;54.382;9.708;2023-10-09T06:00:45;10.50;99.90
60860;DHT22;46694;54.382;9.708;2023-10-09T06:03:29;10.50;99.90
60860;DHT22;46694;54.382;9.708;2023-10-09T06:06:15;10.50;99.90
60860;DHT22;46694;54.382;9.708;2023-10-09T06:09:05;10.50;99.90
60860;DHT22;46694;54.382;9.708;2023-10-09T06:11:45;10.40;99.90
60860;DHT22;46694;54.382;9.708;2023-10-09T06:14:18;10.40;99.90
60860;DHT22;46694;54.382;9.708;2023-10-09T06:16:52;10.40;99.90
60860;DHT22;46694;54.382;9.708;2023-10-09T06:19:47;10.40;99.90
60860;DHT22;46694;54.382;9.708;2023-10-09T06:22:14;10.50;99.90
60860;DHT22;46694;54.382;9.708;2023-10-09T06:24:58;10.50;99.90
60860;DHT22;46694;54.382;9.708;2023-10-09T06:27:35;10.50;99.90
60860;DHT22;46694;54.382;9.708;2023-10-09T06:30:01;10.50;99.90
60860;DHT22;46694;54.382;9.708;2023-10-09T06:32:46;10.50;99.90
60860;DHT22;46694;54.382;9.708;2023-10-09T06:35:20;10.50;99.90
60860;DHT22;46694;54.382;9.708;2023-10-09T06:38:05;10.50;99.90
60860;DHT22;46694;54.382;9.708;2023-10-09T06:40:48;10.40;99.90
60860;DHT22;46694;54.382;9.708;2023-10-09T06:43:22;10.50;99.90
60860;DHT22;46694;54.382;9.708;2023-10-09T06:45:50;10.50;99.90
60860;DHT22;46694;54.382;9.708;2023-10-09T06:48:34;10.50;99.90
60860;DHT22;46694;54.382;9.708;2023-10-09T06:51:07;10.40;99.90
60860;DHT22;46694;54.382;9.708;2023-10-09T06:53:56;10.40;99.90
60860;DHT22;46694;54.382;9.708;2023-10-09T06:58:50;10.50;99.90
60860;DHT22;46694;54.382;9.708;2023-10-09T07:01:21;10.40;99.90
60860;DHT22;46694;54.382;9.708;2023-10-09T07:03:53;10.50;99.90
60860;DHT22;46694;54.382;9.708;2023-10-09T07:06:22;10.40;99.90
60860;DHT22;46694;54.382;9.708;2023-10-09T07:09:10;10.40;99.90
60860;DHT22;46694;54.382;9.708;2023-10-09T07:11:47;10.40;99.90
60860;DHT22;46694;54.382;9.708;2023-10-09T07:14:24;10.40;99.90
60860;DHT22;46694;54.382;9.708;2023-10-09T07:16:56;10.40;99.90
60860;DHT22;46694;54.382;9.708;2023-10-09T07:19:45;10.40;99.90
60860;DHT22;46694;54.382;9.708;2023-10-09T07:22:11;10.40;99.90
60860;DHT22;46694;54.382;9.708;2023-10-09T07:25:01;10.40;99.90
60860;DHT22;46694;54.382;9.708;2023-10-09T07:27:53;10.40;99.90
60860;DHT22;46694;54.382;9.708;2023-10-09T07:30:21;10.50;99.90
60860;DHT22;46694;54.382;9.708;2023-10-09T07:35:34;10.50;99.90
60860;DHT22;46694;54.382;9.708;2023-10-09T07:38:16;10.50;99.90
60860;DHT22;46694;54.382;9.708;2023-10-09T07:40:48;10.60;99.90
60860;DHT22;46694;54.382;9.708;2023-10-09T07:43:34;10.60;99.90
60860;DHT22;46694;54.382;9.708;2023-10-09T07:46:05;10.60;99.90
60860;DHT22;46694;54.382;9.708;2023-10-09T07:49:10;10.60;99.90
60860;DHT22;46694;54.382;9.708;2023-10-09T07:51:39;10.70;99.90
60860;DHT22;46694;54.382;9.708;2023-10-09T07:54:09;10.70;99.90
60860;DHT22;46694;54.382;9.708;2023-10-09T07:56:41;10.70;99.90
60860;DHT22;46694;54.382;9.708;2023-10-09T07:59:09;10.70;99.90
60860;DHT22;46694;54.382;9.708;2023-10-09T08:01:42;10.70;99.90
60860;DHT22;46694;54.382;9.708;2023-10-09T08:04:22;10.60;99.90
60860;DHT22;46694;54.382;9.708;2023-10-09T08:07:10;10.60;99.90
60860;DHT22;46694;54.382;9.708;2023-10-09T08:09:48;10.60;99.90
60860;DHT22;46694;54.382;9.708;2023-10-09T08:12:15;10.60;99.90
60860;DHT22;46694;54.382;9.708;2023-10-09T08:15:00;10.60;99.90
60860;DHT22;46694;54.382;9.708;2023-10-09T08:17:53;10.60;99.90
60860;DHT22;46694;54.382;9.708;2023-10-09T08:20:26;10.60;99.90
60860;DHT22;46694;54.382;9.708;2023-10-09T08:22:53;10.60;99.90
60860;DHT22;46694;54.382;9.708;2023-10-09T08:25:23;10.70;99.90
60860;DHT22;46694;54.382;9.708;2023-10-09T08:28:02;10.70;99.90
60860;DHT22;46694;54.382;9.708;2023-10-09T08:30:41;10.70;99.90
60860;DHT22;46694;54.382;9.708;2023-10-09T08:33:16;10.70;99.90
60860;DHT22;46694;54.382;9.708;2023-10-09T08:35:55;10.70;99.90
60860;DHT22;46694;54.382;9.708;2023-10-09T08:38:29;10.70;99.90
60860;DHT22;46694;54.382;9.708;2023-10-09T08:41:10;10.70;99.90
60860;DHT22;46694;54.382;9.708;2023-10-09T08:43:48;10.70;99.90
60860;DHT22;46694;54.382;9.708;2023-10-09T08:46:23;10.70;99.90
60860;DHT22;46694;54.382;9.708;2023-10-09T08:48:58;10.70;99.90
60860;DHT22;46694;54.382;9.708;2023-10-09T08:51:27;10.70;99.90
60860;DHT22;46694;54.382;9.708;2023-10-09T08:53:55;10.80;99.90
60860;DHT22;46694;54.382;9.708;2023-10-09T08:56:21;10.80;99.90
60860;DHT22;46694;54.382;9.708;2023-10-09T08:58:58;10.80;99.90
60860;DHT22;46694;54.382;9.708;2023-10-09T09:01:27;10.80;99.90
60860;DHT22;46694;54.382;9.708;2023-10-09T09:03:57;10.80;99.90
60860;DHT22;46694;54.382;9.708;2023-10-09T09:06:25;10.90;99.90
60860;DHT22;46694;54.382;9.708;2023-10-09T09:08:51;10.90;99.90
60860;DHT22;46694;54.382;9.708;2023-10-09T09:11:25;10.90;99.90
60860;DHT22;46694;54.382;9.708;2023-10-09T09:14:03;10.90;99.90
60860;DHT22;46694;54.382;9.708;2023-10-09T09:16:40;11.00;99.90
60860;DHT22;46694;54.382;9.708;2023-10-09T09:19:10;11.00;99.90
60860;DHT22;46694;54.382;9.708;2023-10-09T09:21:37;11.00;99.90
60860;DHT22;46694;54.382;9.708;2023-10-09T09:24:04;11.00;99.90
60860;DHT22;46694;54.382;9.708;2023-10-09T09:26:50;11.00;99.90
60860;DHT22;46694;54.382;9.708;2023-10-09T09:32:08;11.10;99.90
60860;DHT22;46694;54.382;9.708;2023-10-09T09:34:49;11.10;99.90
60860;DHT22;46694;54.382;9.708;2023-10-09T09:37:27;11.20;99.90
60860;DHT22;46694;54.382;9.708;2023-10-09T09:40:01;11.20;99.90
60860;DHT22;46694;54.382;9.708;2023-10-09T09:42:43;11.20;99.90
60860;DHT22;46694;54.382;9.708;2023-10-09T09:45:14;11.30;99.90
60860;DHT22;46694;54.382;9.708;2023-10-09T09:47:45;11.30;99.90
60860;DHT22;46694;54.382;9.708;2023-10-09T09:50:17;11.40;99.90
60860;DHT22;46694;54.382;9.708;2023-10-09T09:52:55;11.40;99.90
60860;DHT22;46694;54.382;9.708;2023-10-09T09:55:28;11.40;99.90
60860;DHT22;46694;54.382;9.708;2023-10-09T09:57:59;11.40;99.90
60860;DHT22;46694;54.382;9.708;2023-10-09T10:00:29;11.50;99.90
60860;DHT22;46694;54.382;9.708;2023-10-09T10:05:52;11.50;99.90
60860;DHT22;46694;54.382;9.708;2023-10-09T10:08:22;11.60;99.90
60860;DHT22;46694;54.382;9.708;2023-10-09T10:10:57;11.60;99.90
60860;DHT22;46694;54.382;9.708;2023-10-09T10:13:56;11.60;99.90
60860;DHT22;46694;54.382;9.708;2023-10-09T10:16:25;11.70;99.90
60860;DHT22;46694;54.382;9.708;2023-10-09T10:19:04;11.80;99.90
60860;DHT22;46694;54.382;9.708;2023-10-09T10:21:47;11.80;99.90
60860;DHT22;46694;54.382;9.708;2023-10-09T10:35:21;12.00;99.90
60860;DHT22;46694;54.382;9.708;2023-10-09T10:41:13;12.00;99.90
60860;DHT22;46694;54.382;9.708;2023-10-09T10:43:48;12.00;99.90
60860;DHT22;46694;54.382;9.708;2023-10-09T10:46:17;12.00;99.90
60860;DHT22;46694;54.382;9.708;2023-10-09T10:48:59;12.10;99.90
60860;DHT22;46694;54.382;9.708;2023-10-09T10:51:26;12.10;99.90
60860;DHT22;46694;54.382;9.708;2023-10-09T10:54:20;12.10;99.90
60860;DHT22;46694;54.382;9.708;2023-10-09T10:57:00;12.10;99.90
60860;DHT22;46694;54.382;9.708;2023-10-09T10:59:39;12.10;99.90
60860;DHT22;46694;54.382;9.708;2023-10-09T11:02:10;12.00;99.90
60860;DHT22;46694;54.382;9.708;2023-10-09T11:04:37;12.00;99.90
60860;DHT22;46694;54.382;9.708;2023-10-09T11:07:09;12.00;99.90
60860;DHT22;46694;54.382;9.708;2023-10-09T11:10:01;12.10;99.90
60860;DHT22;46694;54.382;9.708;2023-10-09T11:12:28;12.00;99.90
60860;DHT22;46694;54.382;9.708;2023-10-09T11:15:06;12.00;99.90
60860;DHT22;46694;54.382;9.708;2023-10-09T11:18:03;12.00;99.90
60860;DHT22;46694;54.382;9.708;2023-10-09T11:20:37;12.00;99.90
60860;DHT22;46694;54.382;9.708;2023-10-09T11:23:04;12.00;99.90
60860;DHT22;46694;54.382;9.708;2023-10-09T11:25:34;12.00;99.90
60860;DHT22;46694;54.382;9.708;2023-10-09T11:28:01;12.00;99.90
60860;DHT22;46694;54.382;9.708;2023-10-09T11:30:47;12.10;99.90
60860;DHT22;46694;54.382;9.708;2023-10-09T11:33:12;12.10;99.90
60860;DHT22;46694;54.382;9.708;2023-10-09T11:35:55;12.10;99.90
60860;DHT22;46694;54.382;9.708;2023-10-09T11:38:23;12.20;99.90
60860;DHT22;46694;54.382;9.708;2023-10-09T11:40:49;12.20;99.90
60860;DHT22;46694;54.382;9.708;2023-10-09T11:43:19;12.30;99.90
60860;DHT22;46694;54.382;9.708;2023-10-09T11:46:10;12.30;99.90
60860;DHT22;46694;54.382;9.708;2023-10-09T11:49:09;12.40;99.90
60860;DHT22;46694;54.382;9.708;2023-10-09T11:51:47;12.40;99.90
60860;DHT22;46694;54.382;9.708;2023-10-09T11:54:32;12.40;99.90
60860;DHT22;46694;54.382;9.708;2023-10-09T11:57:01;12.40;99.90
60860;DHT22;46694;54.382;9.708;2023-10-09T11:59:28;12.50;99.90
60860;DHT22;46694;54.382;9.708;2023-10-09T12:02:18;12.50;99.90
60860;DHT22;46694;54.382;9.708;2023-10-09T12:04:43;12.60;99.90
60860;DHT22;46694;54.382;9.708;2023-10-09T12:07:10;12.60;99.90
60860;DHT22;46694;54.382;9.708;2023-10-09T12:09:39;12.60;99.90
60860;DHT22;46694;54.382;9.708;2023-10-09T12:12:08;12.60;99.90
60860;DHT22;46694;54.382;9.708;2023-10-09T12:14:37;12.60;99.90
60860;DHT22;46694;54.382;9.708;2023-10-09T12:17:07;12.70;99.90
60860;DHT22;46694;54.382;9.708;2023-10-09T12:19:37;12.60;99.90
60860;DHT22;46694;54.382;9.708;2023-10-09T12:22:08;12.70;99.90
60860;DHT22;46694;54.382;9.708;2023-10-09T12:24:42;12.70;99.90
60860;DHT22;46694;54.382;9.708;2023-10-09T12:27:09;12.60;99.90
60860;DHT22;46694;54.382;9.708;2023-10-09T12:29:38;12.60;99.90
60860;DHT22;46694;54.382;9.708;2023-10-09T12:32:10;12.70;99.90
60860;DHT22;46694;54.382;9.708;2023-10-09T12:34:37;12.80;99.90
60860;DHT22;46694;54.382;9.708;2023-10-09T12:37:04;12.80;99.90
60860;DHT22;46694;54.382;9.708;2023-10-09T12:39:31;12.90;99.90
60860;DHT22;46694;54.382;9.708;2023-10-09T12:42:05;13.00;99.90
60860;DHT22;46694;54.382;9.708;2023-10-09T12:44:35;13.00;99.90
60860;DHT22;46694;54.382;9.708;2023-10-09T12:47:08;13.00;99.90
60860;DHT22;46694;54.382;9.708;2023-10-09T12:49:37;13.00;99.90
60860;DHT22;46694;54.382;9.708;2023-10-09T12:52:07;13.00;99.90
60860;DHT22;46694;54.382;9.708;2023-10-09T12:54:42;13.00;99.90
60860;DHT22;46694;54.382;9.708;2023-10-09T12:57:11;13.00;99.90
60860;DHT22;46694;54.382;9.708;2023-10-09T12:59:40;13.10;99.90
60860;DHT22;46694;54.382;9.708;2023-10-09T13:02:12;13.00;99.90
60860;DHT22;46694;54.382;9.708;2023-10-09T13:04:39;13.10;99.90
60860;DHT22;46694;54.382;9.708;2023-10-09T13:07:07;13.10;99.90
60860;DHT22;46694;54.382;9.708;2023-10-09T13:09:33;13.10;99.90
60860;DHT22;46694;54.382;9.708;2023-10-09T13:15:37;13.20;99.90
60860;DHT22;46694;54.382;9.708;2023-10-09T13:18:08;13.20;99.90
60860;DHT22;46694;54.382;9.708;2023-10-09T13:20:34;13.20;99.90
60860;DHT22;46694;54.382;9.708;2023-10-09T13:23:01;13.10;99.90
60860;DHT22;46694;54.382;9.708;2023-10-09T13:25:27;13.10;99.90
60860;DHT22;46694;54.382;9.708;2023-10-09T13:28:05;13.10;99.90
60860;DHT22;46694;54.382;9.708;2023-10-09T13:30:31;13.10;99.90
60860;DHT22;46694;54.382;9.708;2023-10-09T13:33:04;13.10;99.90
60860;DHT22;46694;54.382;9.708;2023-10-09T13:35:31;13.10;99.90
60860;DHT22;46694;54.382;9.708;2023-10-09T13:38:06;13.20;99.90
60860;DHT22;46694;54.382;9.708;2023-10-09T13:40:35;13.20;99.90
60860;DHT22;46694;54.382;9.708;2023-10-09T13:43:03;13.20;99.90
60860;DHT22;46694;54.382;9.708;2023-10-09T13:45:29;13.20;99.90
60860;DHT22;46694;54.382;9.708;2023-10-09T13:47:59;13.30;99.90
60860;DHT22;46694;54.382;9.708;2023-10-09T13:50:28;13.30;99.90
60860;DHT22;46694;54.382;9.708;2023-10-09T13:52:57;13.30;99.90
60860;DHT22;46694;54.382;9.708;2023-10-09T13:55:24;13.40;99.90
60860;DHT22;46694;54.382;9.708;2023-10-09T13:57:57;13.40;99.90
60860;DHT22;46694;54.382;9.708;2023-10-09T14:00:23;13.40;99.90
60860;DHT22;46694;54.382;9.708;2023-10-09T14:03:00;13.40;99.90
60860;DHT22;46694;54.382;9.708;2023-10-09T14:05:37;13.40;99.90
60860;DHT22;46694;54.382;9.708;2023-10-09T14:08:10;13.40;99.90
60860;DHT22;46694;54.382;9.708;2023-10-09T14:10:39;13.30;99.90
60860;DHT22;46694;54.382;9.708;2023-10-09T14:13:05;13.30;99.90
60860;DHT22;46694;54.382;9.708;2023-10-09T14:15:38;13.40;99.90
60860;DHT22;46694;54.382;9.708;2023-10-09T14:18:09;13.40;99.90
60860;DHT22;46694;54.382;9.708;2023-10-09T14:20:40;13.50;99.90
60860;DHT22;46694;54.382;9.708;2023-10-09T14:23:07;13.50;99.90
60860;DHT22;46694;54.382;9.708;2023-10-09T14:25:35;13.60;99.90
60860;DHT22;46694;54.382;9.708;2023-10-09T14:28:10;13.60;99.90
60860;DHT22;46694;54.382;9.708;2023-10-09T14:30:37;13.60;99.90
60860;DHT22;46694;54.382;9.708;2023-10-09T14:33:12;13.60;99.90
60860;DHT22;46694;54.382;9.708;2023-10-09T14:35:42;13.50;99.90
60860;DHT22;46694;54.382;9.708;2023-10-09T14:38:10;13.40;99.90
60860;DHT22;46694;54.382;9.708;2023-10-09T14:40:44;13.40;99.90
60860;DHT22;46694;54.382;9.708;2023-10-09T14:43:11;13.40;99.90
60860;DHT22;46694;54.382;9.708;2023-10-09T14:45:49;13.40;99.90
60860;DHT22;46694;54.382;9.708;2023-10-09T14:48:19;13.40;99.90
60860;DHT22;46694;54.382;9.708;2023-10-09T14:50:52;13.50;99.90
60860;DHT22;46694;54.382;9.708;2023-10-09T14:53:19;13.50;99.90
60860;DHT22;46694;54.382;9.708;2023-10-09T14:55:58;13.50;99.90
60860;DHT22;46694;54.382;9.708;2023-10-09T14:58:29;13.50;99.90
60860;DHT22;46694;54.382;9.708;2023-10-09T15:01:06;13.50;99.90
60860;DHT22;46694;54.382;9.708;2023-10-09T15:03:36;13.50;99.90
60860;DHT22;46694;54.382;9.708;2023-10-09T15:06:05;13.50;99.90
60860;DHT22;46694;54.382;9.708;2023-10-09T15:08:35;13.50;99.90
60860;DHT22;46694;54.382;9.708;2023-10-09T15:11:02;13.50;99.90
60860;DHT22;46694;54.382;9.708;2023-10-09T15:13:28;13.50;99.90
60860;DHT22;46694;54.382;9.708;2023-10-09T15:15:54;13.50;99.90
60860;DHT22;46694;54.382;9.708;2023-10-09T15:18:21;13.50;99.90
60860;DHT22;46694;54.382;9.708;2023-10-09T15:20:48;13.50;99.90
60860;DHT22;46694;54.382;9.708;2023-10-09T15:23:15;13.60;99.90
60860;DHT22;46694;54.382;9.708;2023-10-09T15:25:41;13.60;99.90
60860;DHT22;46694;54.382;9.708;2023-10-09T15:28:11;13.60;99.90
60860;DHT22;46694;54.382;9.708;2023-10-09T15:30:38;13.60;99.90
60860;DHT22;46694;54.382;9.708;2023-10-09T15:33:05;13.60;99.90
60860;DHT22;46694;54.382;9.708;2023-10-09T15:35:31;13.60;99.90
60860;DHT22;46694;54.382;9.708;2023-10-09T15:38:02;13.70;99.90
60860;DHT22;46694;54.382;9.708;2023-10-09T15:40:32;13.70;99.90
60860;DHT22;46694;54.382;9.708;2023-10-09T15:43:03;13.70;99.90
60860;DHT22;46694;54.382;9.708;2023-10-09T15:45:31;13.70;99.90
60860;DHT22;46694;54.382;9.708;2023-10-09T15:47:58;13.70;99.90
60860;DHT22;46694;54.382;9.708;2023-10-09T15:50:30;13.80;99.90
60860;DHT22;46694;54.382;9.708;2023-10-09T15:53:00;13.80;99.90
60860;DHT22;46694;54.382;9.708;2023-10-09T15:55:28;13.80;99.90
60860;DHT22;46694;54.382;9.708;2023-10-09T15:57:54;13.80;99.90
60860;DHT22;46694;54.382;9.708;2023-10-09T16:00:21;13.80;99.90
60860;DHT22;46694;54.382;9.708;2023-10-09T16:02:48;13.80;99.90
60860;DHT22;46694;54.382;9.708;2023-10-09T16:05:16;13.80;99.90
60860;DHT22;46694;54.382;9.708;2023-10-09T16:07:43;13.70;99.90
60860;DHT22;46694;54.382;9.708;2023-10-09T16:10:09;13.70;99.90
60860;DHT22;46694;54.382;9.708;2023-10-09T16:12:38;13.60;99.90
60860;DHT22;46694;54.382;9.708;2023-10-09T16:15:05;13.60;99.90
60860;DHT22;46694;54.382;9.708;2023-10-09T16:17:35;13.50;99.90
60860;DHT22;46694;54.382;9.708;2023-10-09T16:20:03;13.50;99.90
60860;DHT22;46694;54.382;9.708;2023-10-09T16:22:39;13.50;99.90
60860;DHT22;46694;54.382;9.708;2023-10-09T16:25:06;13.50;99.90
60860;DHT22;46694;54.382;9.708;2023-10-09T16:27:38;13.50;99.90
60860;DHT22;46694;54.382;9.708;2023-10-09T16:30:14;13.50;99.90
60860;DHT22;46694;54.382;9.708;2023-10-09T16:32:44;13.50;99.90
60860;DHT22;46694;54.382;9.708;2023-10-09T16:35:11;13.50;99.90
60860;DHT22;46694;54.382;9.708;2023-10-09T16:37:37;13.50;99.90
60860;DHT22;46694;54.382;9.708;2023-10-09T16:40:03;13.50;99.90
60860;DHT22;46694;54.382;9.708;2023-10-09T16:42:40;13.60;99.90
60860;DHT22;46694;54.382;9.708;2023-10-09T16:45:09;13.60;99.90